Time;durP1;ratioP1;P1;durP2;ratioP2;P2;SDS_P1;SDS_P2;PMS_P1;PMS_P2;Temp;Humidity;BMP_temperature;BMP_pressure;BME280_temperature;BME280_humidity;BME280_pressure;Samples;Min_cycle;Max_cycle;Signal;HPM_P1;HPM_P2
2022/08/04 00:01:26;;;;;;;3.40;2.07;;;;;;;27.14;37.81;101005.78;5125195;28;20567;-66
2022/08/04 00:04:48;;;;;;;3.53;2.20;;;;;;;27.07;37.93;100991.66;5046235;28;20464;-63
2022/08/04 00:07:24;;;;;;;3.78;2.10;;;;;;;27.11;38.25;101002.81;5055289;28;20448;-63
2022/08/04 00:10:08;;;;;;;2.90;2.20;;;;;;;27.03;38.32;101002.25;5043995;28;20382;-66
2022/08/04 00:12:37;;;;;;;2.40;2.20;;;;;;;27.01;38.27;101006.31;5041812;28;20419;-63
2022/08/04 00:15:05;;;;;;;2.28;2.08;;;;;;;26.99;38.37;101001.19;5052699;28;20396;-62
2022/08/04 00:17:53;;;;;;;4.60;2.38;;;;;;;26.98;38.00;101001.44;5048415;28;20404;-62
2022/08/04 00:20:19;;;;;;;3.17;2.10;;;;;;;26.91;38.36;101004.44;5052575;28;20413;-63
2022/08/04 00:22:47;;;;;;;2.53;2.08;;;;;;;26.92;38.34;101007.97;5045721;28;20433;-63
2022/08/04 00:25:14;;;;;;;3.10;2.03;;;;;;;26.87;38.33;101006.09;5046645;28;20473;-63
2022/08/04 00:29:10;;;;;;;3.05;2.53;;;;;;;26.86;38.48;101004.44;5091803;27;20822;-62
2022/08/04 00:31:36;;;;;;;3.53;2.27;;;;;;;26.88;38.51;101011.25;5081485;28;20421;-63
2022/08/04 00:34:03;;;;;;;3.30;2.23;;;;;;;26.77;38.47;101003.34;5068075;28;20396;-62
2022/08/04 00:36:29;;;;;;;3.75;2.20;;;;;;;26.82;38.15;101004.16;5081528;28;20400;-62
2022/08/04 00:38:56;;;;;;;4.87;2.30;;;;;;;26.85;38.02;101006.34;5067983;28;20424;-62
2022/08/04 00:41:35;;;;;;;4.95;2.40;;;;;;;26.88;38.37;101002.25;5086278;28;20378;-65
2022/08/04 00:44:16;;;;;;;2.67;2.20;;;;;;;26.84;38.09;101012.88;5069543;28;20406;-62
2022/08/04 00:47:04;;;;;;;4.30;2.60;;;;;;;26.82;38.33;101003.34;5072026;28;20490;-63
2022/08/04 00:49:48;;;;;;;2.65;1.90;;;;;;;26.83;38.18;101019.41;5065143;28;20380;-63
2022/08/04 00:54:12;;;;;;;3.05;2.53;;;;;;;26.82;38.04;101022.41;5088173;27;20411;-63
2022/08/04 00:57:15;;;;;;;3.72;2.60;;;;;;;26.87;37.98;101020.50;5098644;28;20394;-62
2022/08/04 01:00:07;;;;;;;4.80;2.30;;;;;;;26.87;37.62;101016.97;5086724;28;20378;-62
2022/08/04 01:05:04;;;;;;;4.63;2.38;;;;;;;26.79;37.87;101023.75;5094474;27;20412;-63
2022/08/04 01:07:48;;;;;;;5.70;2.20;;;;;;;26.84;37.85;101022.94;5097228;28;20413;-63
2022/08/04 01:10:40;;;;;;;2.38;2.13;;;;;;;26.77;37.48;101022.38;5087246;28;20374;-63
2022/08/04 01:13:28;;;;;;;2.90;2.20;;;;;;;26.83;37.56;101029.44;5100894;28;20393;-64
2022/08/04 01:16:02;;;;;;;2.77;2.50;;;;;;;26.86;37.78;101032.44;5085125;28;20405;-62
2022/08/04 01:18:46;;;;;;;4.60;2.20;;;;;;;26.85;37.73;101032.75;5067028;28;20406;-62
2022/08/04 01:21:33;;;;;;;2.45;2.22;;;;;;;26.80;37.88;101021.84;5076453;28;20410;-64
2022/08/04 01:24:15;;;;;;;3.27;2.43;;;;;;;26.83;37.52;101033.00;5080851;28;20499;-62
2022/08/04 01:26:52;;;;;;;3.53;2.10;;;;;;;26.85;37.73;101033.56;5074444;28;20467;-63
2022/08/04 01:29:21;;;;;;;3.83;2.30;;;;;;;26.86;37.90;101035.16;5096171;28;20912;-63
2022/08/04 01:31:53;;;;;;;3.00;2.40;;;;;;;26.83;37.80;101026.72;5092584;28;20776;-64
2022/08/04 01:34:21;;;;;;;2.88;2.35;;;;;;;26.81;37.87;101028.91;5102447;28;20392;-63
2022/08/04 01:36:59;;;;;;;3.35;2.15;;;;;;;26.68;38.18;101028.34;5089939;28;20457;-63
2022/08/04 01:39:39;;;;;;;2.65;2.30;;;;;;;26.66;38.39;101043.31;5095916;28;20390;-62
2022/08/04 01:43:27;;;;;;;5.68;2.40;;;;;;;26.69;38.28;101054.47;5054784;28;20413;-63
2022/08/04 01:45:59;;;;;;;3.60;2.10;;;;;;;26.73;38.14;101045.78;5046757;28;20447;-66
2022/08/04 01:48:25;;;;;;;4.50;2.30;;;;;;;26.67;38.16;101043.06;5046254;28;20394;-63
2022/08/04 01:50:52;;;;;;;3.72;2.00;;;;;;;26.61;38.08;101049.56;5046929;28;20402;-62
2022/08/04 01:53:22;;;;;;;2.97;2.22;;;;;;;26.63;38.28;101049.28;5046466;28;20393;-62
2022/08/04 01:55:48;;;;;;;3.00;2.15;;;;;;;26.59;38.43;101043.53;5046326;28;20448;-62
2022/08/04 01:58:17;;;;;;;3.67;2.10;;;;;;;26.57;38.43;101040.28;5046185;28;20448;-62
2022/08/04 02:01:18;;;;;;;3.05;2.20;;;;;;;26.57;38.51;101042.19;5046544;28;20793;-62
2022/08/04 02:03:44;;;;;;;2.83;2.13;;;;;;;26.58;38.40;101041.94;5041277;28;20420;-65
2022/08/04 02:06:32;;;;;;;3.10;2.25;;;;;;;26.54;38.70;101040.81;5045905;28;20405;-62
2022/08/04 02:09:11;;;;;;;3.27;2.30;;;;;;;26.48;38.77;101039.19;5041433;28;20898;-64
2022/08/04 02:11:40;;;;;;;2.45;2.25;;;;;;;26.46;38.66;101039.44;5046307;28;20397;-62
2022/08/04 02:14:39;;;;;;;2.70;2.35;;;;;;;26.43;38.69;101039.16;5046003;28;20792;-63
2022/08/04 02:17:13;;;;;;;2.78;2.30;;;;;;;26.46;38.67;101047.59;5034007;28;20398;-65
2022/08/04 02:20:47;;;;;;;2.70;2.30;;;;;;;26.42;38.79;101041.06;5064659;28;20416;-62
2022/08/04 02:23:33;;;;;;;3.30;2.47;;;;;;;26.40;38.99;101045.97;5058309;28;20417;-62
2022/08/04 02:26:05;;;;;;;3.03;2.40;;;;;;;26.39;39.11;101047.03;5061463;28;20395;-62
2022/08/04 02:29:36;;;;;;;5.03;2.50;;;;;;;26.32;39.14;101050.00;5082219;27;2117483;-62
2022/08/04 02:32:05;;;;;;;3.50;2.28;;;;;;;26.28;39.10;101048.91;5132451;27;20391;-65
2022/08/04 02:34:48;;;;;;;4.75;2.30;;;;;;;26.26;39.18;101050.28;5144230;27;20433;-62
2022/08/04 02:37:16;;;;;;;2.63;2.10;;;;;;;26.25;39.42;101054.06;5136307;27;20404;-62
2022/08/04 02:41:58;;;;;;;4.80;2.17;;;;;;;26.24;39.40;101050.53;5105769;27;20473;-64
2022/08/04 02:44:27;;;;;;;2.60;2.30;;;;;;;26.23;39.41;101042.66;5089965;28;20409;-63
2022/08/04 02:46:53;;;;;;;4.65;2.42;;;;;;;26.21;39.26;101042.09;5101826;28;20392;-63
2022/08/04 02:49:21;;;;;;;2.80;2.20;;;;;;;26.20;39.63;101048.59;5092115;28;20499;-63
2022/08/04 02:51:50;;;;;;;4.73;2.30;;;;;;;26.19;39.38;101053.22;5094589;28;20493;-63
2022/08/04 02:54:18;;;;;;;3.63;2.63;;;;;;;26.13;39.57;101046.97;5103171;28;20424;-63
2022/08/04 02:56:45;;;;;;;4.88;2.60;;;;;;;26.11;39.70;101046.41;5074495;28;20431;-63
2022/08/04 03:00:31;;;;;;;2.90;2.50;;;;;;;26.15;39.69;101044.00;5102986;27;20481;-63
2022/08/04 03:03:18;;;;;;;8.00;2.60;;;;;;;26.16;39.50;101050.22;5087527;28;20810;-63
2022/08/04 03:05:59;;;;;;;4.18;2.65;;;;;;;26.14;39.57;101045.06;5099359;28;20393;-63
2022/08/04 03:08:53;;;;;;;3.35;2.45;;;;;;;26.17;39.52;101052.69;5089669;28;20764;-63
2022/08/04 03:11:50;;;;;;;4.70;2.67;;;;;;;26.08;39.73;101060.53;5075784;28;20413;-66
2022/08/04 03:14:27;;;;;;;2.83;2.57;;;;;;;26.01;39.82;101056.44;5102962;28;20416;-63
2022/08/04 03:17:08;;;;;;;5.43;2.67;;;;;;;25.98;39.94;101065.09;5076899;28;20392;-63
2022/08/04 03:19:58;;;;;;;5.05;2.60;;;;;;;25.93;39.80;101060.47;5096218;28;20460;-63
2022/08/04 03:23:16;;;;;;;3.90;2.77;;;;;;;25.95;39.89;101063.75;5103123;28;20384;-65
2022/08/04 03:25:50;;;;;;;4.93;2.67;;;;;;;25.98;40.01;101063.19;5088509;28;20392;-63
2022/08/04 03:28:37;;;;;;;5.20;2.50;;;;;;;25.93;40.13;101065.91;5105261;28;20882;-63
2022/08/04 03:31:18;;;;;;;4.22;2.75;;;;;;;25.89;40.16;101065.59;5092633;28;20894;-64
2022/08/04 03:33:49;;;;;;;5.57;2.60;;;;;;;25.88;40.11;101063.94;5094495;28;20878;-63
2022/08/04 03:36:52;;;;;;;4.20;2.20;;;;;;;25.87;40.24;101069.63;5102544;28;20467;-66
2022/08/04 03:39:54;;;;;;;3.95;2.65;;;;;;;25.85;40.30;101072.59;5082318;28;20815;-63
2022/08/04 03:42:43;;;;;;;5.60;2.80;;;;;;;25.86;40.20;101068.81;5102311;28;20438;-63
2022/08/04 03:45:47;;;;;;;3.47;2.30;;;;;;;25.85;40.17;101069.09;5079734;28;20914;-63
2022/08/04 03:48:36;;;;;;;4.60;2.60;;;;;;;25.85;40.16;101082.66;5090497;28;20441;-63
2022/08/04 03:54:19;;;;;;;5.30;2.63;;;;;;;25.87;40.22;101083.22;5092324;28;20981;-64
2022/08/04 03:58:17;;;;;;;4.30;2.70;;;;;;;25.85;40.12;101083.47;5094484;27;20459;-64
2022/08/04 04:00:53;;;;;;;6.85;2.75;;;;;;;25.82;40.21;101088.59;5091162;28;20427;-62
2022/08/04 04:03:23;;;;;;;6.18;2.50;;;;;;;25.85;40.06;101091.63;5099074;28;20386;-63
2022/08/04 04:06:26;;;;;;;5.20;2.80;;;;;;;25.84;40.19;101089.16;5093608;28;20493;-63
2022/08/04 04:09:16;;;;;;;3.97;2.80;;;;;;;25.86;40.11;101097.88;5075243;28;20402;-63
2022/08/04 04:12:17;;;;;;;3.75;2.63;;;;;;;25.97;39.99;101102.31;5095363;28;20406;-63
2022/08/04 04:15:06;;;;;;;4.20;2.83;;;;;;;26.11;39.74;101106.19;5066371;28;20395;-63
2022/08/04 04:18:10;;;;;;;7.45;2.97;;;;;;;26.12;39.78;101115.97;5095343;28;20455;-63
2022/08/04 04:21:10;;;;;;;5.70;2.87;;;;;;;26.07;39.79;101118.69;5094269;28;20430;-62
2022/08/04 04:23:55;;;;;;;3.67;2.80;;;;;;;26.17;39.66;101117.09;5096719;28;20385;-63
2022/08/04 04:27:00;;;;;;;7.10;3.10;;;;;;;26.65;39.00;101124.09;5090225;28;20394;-69
2022/08/04 04:29:55;;;;;;;8.77;3.13;;;;;;;26.92;38.55;101124.94;5054221;28;20505;-62
2022/08/04 04:32:51;;;;;;;8.10;3.03;;;;;;;27.18;37.98;101114.91;5102628;28;20404;-62
2022/08/04 04:35:25;;;;;;;10.57;3.47;;;;;;;27.50;37.85;101119.31;5093401;28;20392;-63
2022/08/04 04:38:08;;;;;;;7.43;2.78;;;;;;;27.52;37.31;101117.94;5103422;28;20411;-63
2022/08/04 04:41:09;;;;;;;4.55;2.85;;;;;;;27.33;37.71;101116.84;5089396;28;20504;-63
2022/08/04 04:43:34;;;;;;;6.18;3.42;;;;;;;27.29;37.75;101127.47;5104786;28;20381;-62
2022/08/04 04:46:45;;;;;;;4.83;3.00;;;;;;;27.22;38.17;101144.03;5092954;28;20776;-63
2022/08/04 04:49:21;;;;;;;4.80;2.95;;;;;;;27.25;37.86;101137.22;5078113;28;20825;-63
2022/08/04 04:51:49;;;;;;;4.78;3.00;;;;;;;27.27;37.97;101138.63;5094862;28;20432;-63
2022/08/04 04:54:36;;;;;;;4.18;3.13;;;;;;;27.55;37.40;101133.72;5101356;28;20392;-63
2022/08/04 04:57:15;;;;;;;7.30;3.13;;;;;;;27.50;37.96;101138.38;5075768;28;20438;-63
2022/08/04 04:59:49;;;;;;;5.40;2.90;;;;;;;27.52;37.69;101141.63;5095714;28;20412;-63
2022/08/04 05:02:40;;;;;;;10.20;2.83;;;;;;;28.39;36.63;101144.16;5100559;28;20910;-63
2022/08/04 05:05:41;;;;;;;12.45;3.60;;;;;;;29.12;35.25;101132.56;5076806;28;20467;-63
2022/08/04 05:08:12;;;;;;;7.07;3.10;;;;;;;29.64;34.14;101143.06;5084655;28;20390;-63
2022/08/04 05:11:05;;;;;;;7.30;3.17;;;;;;;29.47;34.26;101149.75;5088572;28;20389;-63
2022/08/04 05:13:33;;;;;;;7.78;3.25;;;;;;;29.11;34.99;101149.22;5080822;28;20392;-63
2022/08/04 05:16:22;;;;;;;5.47;3.30;;;;;;;29.27;34.53;101148.03;5079179;28;20411;-63
2022/08/04 05:19:00;;;;;;;4.63;3.03;;;;;;;30.11;33.43;101145.06;5088040;28;20409;-63
2022/08/04 05:21:29;;;;;;;5.53;2.88;;;;;;;30.74;32.50;101153.28;5079760;28;20385;-65
2022/08/04 05:23:59;;;;;;;5.22;3.05;;;;;;;31.51;31.02;101150.25;5080307;28;20433;-65
2022/08/04 05:26:33;;;;;;;4.55;3.10;;;;;;;32.08;29.70;101138.22;5088056;28;20386;-63
2022/08/04 05:29:05;;;;;;;4.22;2.80;;;;;;;32.56;28.97;101146.00;5060564;28;20879;-64
2022/08/04 05:31:38;;;;;;;8.80;2.90;;;;;;;33.10;28.00;101152.47;5088179;28;20389;-63
2022/08/04 05:34:11;;;;;;;3.20;1.92;;;;;;;33.58;26.46;101151.00;5078331;28;20390;-63
2022/08/04 05:36:45;;;;;;;3.85;2.30;;;;;;;34.11;25.93;101148.50;5087852;28;20455;-66
2022/08/04 05:39:18;;;;;;;4.28;2.50;;;;;;;35.43;24.43;101153.78;5063258;28;20385;-63
2022/08/04 05:41:44;;;;;;;4.20;2.40;;;;;;;38.52;20.58;101136.59;5090227;28;20450;-64
2022/08/04 05:44:10;;;;;;;4.53;2.60;;;;;;;40.89;17.56;101135.00;5077882;28;20398;-64
2022/08/04 05:46:37;;;;;;;5.95;2.03;;;;;;;42.44;16.36;101136.75;5087482;28;20769;-64
2022/08/04 05:49:03;;;;;;;3.58;2.15;;;;;;;42.87;14.93;101132.47;5086724;28;20411;-64
2022/08/04 05:51:30;;;;;;;3.05;2.10;;;;;;;42.84;14.25;101150.00;5083281;28;20394;-64
2022/08/04 05:53:57;;;;;;;7.25;1.90;;;;;;;43.49;13.69;101139.50;5083221;28;20393;-66
2022/08/04 05:56:25;;;;;;;5.30;1.75;;;;;;;44.68;12.45;101143.84;5075302;28;20942;-63
2022/08/04 05:58:52;;;;;;;4.22;2.00;;;;;;;44.30;13.01;101148.88;5087626;28;20393;-62
2022/08/04 06:01:18;;;;;;;4.53;2.03;;;;;;;45.13;12.10;101141.56;5075621;28;20769;-62
2022/08/04 06:03:47;;;;;;;5.75;1.90;;;;;;;47.16;11.01;101134.22;5079086;28;20395;-63
2022/08/04 06:06:16;;;;;;;2.78;1.80;;;;;;;48.20;10.25;101136.06;5070957;28;20900;-62
2022/08/04 06:08:41;;;;;;;6.53;2.15;;;;;;;48.49;9.98;101130.09;5075756;28;20387;-63
2022/08/04 06:11:10;;;;;;;5.03;1.90;;;;;;;49.97;9.45;101134.94;5086347;28;20391;-62
2022/08/04 06:13:43;;;;;;;4.78;1.83;;;;;;;51.41;8.18;101126.81;5070368;28;20402;-62
2022/08/04 06:16:12;;;;;;;3.55;1.80;;;;;;;51.74;7.97;101131.63;5069892;28;20931;-63
2022/08/04 06:18:39;;;;;;;7.47;2.88;;;;;;;51.82;7.88;101121.72;5070352;28;20387;-63
2022/08/04 06:21:08;;;;;;;7.60;4.70;;;;;;;53.36;7.02;101127.47;5070078;28;20423;-63
2022/08/04 06:23:38;;;;;;;9.27;3.83;;;;;;;54.06;6.32;101128.19;5071819;28;20387;-63
2022/08/04 06:26:06;;;;;;;5.00;1.90;;;;;;;54.78;5.69;101114.03;5072543;28;20529;-62
2022/08/04 06:28:32;;;;;;;5.30;2.00;;;;;;;54.36;6.52;101120.16;5071455;28;20387;-62
2022/08/04 06:31:02;;;;;;;4.35;2.08;;;;;;;53.82;6.46;101124.22;5069884;28;20381;-62
2022/08/04 06:33:33;;;;;;;2.40;2.00;;;;;;;54.30;6.36;101112.72;5070310;28;20389;-62
2022/08/04 06:36:00;;;;;;;3.17;2.00;;;;;;;55.66;5.73;101107.00;5071193;28;20422;-62
2022/08/04 06:38:28;;;;;;;4.95;2.45;;;;;;;57.09;5.21;101109.94;5069894;28;20469;-62
2022/08/04 06:40:58;;;;;;;5.85;2.10;;;;;;;56.17;5.50;101108.34;5071158;28;20396;-63
2022/08/04 06:43:26;;;;;;;2.80;2.00;;;;;;;56.07;5.20;101107.56;5070570;28;20384;-61
2022/08/04 06:45:54;;;;;;;3.22;2.13;;;;;;;56.69;5.15;101111.09;5063888;28;20500;-62
2022/08/04 06:48:20;;;;;;;6.30;2.28;;;;;;;58.23;4.24;101110.72;5068322;28;20924;-64
2022/08/04 06:50:49;;;;;;;5.65;2.70;;;;;;;57.73;4.47;101107.81;5068556;28;20537;-62
2022/08/04 06:53:15;;;;;;;3.83;2.35;;;;;;;57.30;4.98;101110.09;5070579;28;20382;-62
2022/08/04 06:55:49;;;;;;;4.10;2.22;;;;;;;57.54;4.74;101105.13;5068647;28;20407;-62
2022/08/04 06:58:17;;;;;;;2.88;2.10;;;;;;;58.10;4.46;101110.25;5068980;28;20422;-64
2022/08/04 07:00:46;;;;;;;3.80;2.30;;;;;;;57.20;4.54;101110.16;5068544;28;20391;-62
2022/08/04 07:03:12;;;;;;;3.05;2.30;;;;;;;56.27;4.80;101106.25;5065969;28;20442;-62
2022/08/04 07:05:39;;;;;;;6.50;2.30;;;;;;;56.08;4.97;101120.53;5068648;28;20406;-64
2022/08/04 07:08:05;;;;;;;3.38;2.67;;;;;;;56.15;5.11;101112.94;5069724;28;20383;-62
2022/08/04 07:10:31;;;;;;;4.78;2.42;;;;;;;56.59;4.90;101110.38;5070027;28;20398;-61
2022/08/04 07:12:59;;;;;;;3.85;2.50;;;;;;;56.95;4.56;101107.81;5070002;28;20387;-62
2022/08/04 07:15:26;;;;;;;4.13;2.30;;;;;;;57.24;4.57;101110.75;5065755;28;20432;-63
2022/08/04 07:17:53;;;;;;;4.07;2.30;;;;;;;55.40;5.36;101115.06;5068400;28;20894;-62
2022/08/04 07:20:19;;;;;;;6.45;2.40;;;;;;;54.78;5.94;101105.50;5067934;28;20398;-63
2022/08/04 07:22:48;;;;;;;3.45;2.35;;;;;;;52.97;6.64;101109.00;5069147;28;20407;-62
2022/08/04 07:25:15;;;;;;;4.38;2.33;;;;;;;48.82;9.27;101122.00;5066655;28;20383;-62
2022/08/04 07:27:42;;;;;;;3.73;2.33;;;;;;;45.53;11.88;101119.22;5069154;28;20428;-64
2022/08/04 07:30:08;;;;;;;2.27;2.07;;;;;;;43.65;13.09;101114.09;5068350;28;20425;-63
2022/08/04 07:32:34;;;;;;;3.30;2.17;;;;;;;42.86;13.74;101121.72;5065735;28;20410;-63
2022/08/04 07:35:01;;;;;;;4.13;2.10;;;;;;;41.81;14.60;101122.31;5068536;28;20432;-66
2022/08/04 07:37:26;;;;;;;4.13;2.10;;;;;;;40.87;15.33;101123.44;5066398;28;20393;-62
2022/08/04 07:39:52;;;;;;;7.00;2.22;;;;;;;40.05;16.09;101130.81;5068127;28;20387;-63
2022/08/04 07:42:19;;;;;;;5.40;2.00;;;;;;;39.29;16.70;101130.06;5067302;28;20395;-62
2022/08/04 07:44:45;;;;;;;5.28;2.15;;;;;;;38.44;17.50;101128.09;5065087;28;20399;-63
2022/08/04 07:47:11;;;;;;;2.53;1.92;;;;;;;37.45;18.26;101143.06;5074030;28;20940;-61
2022/08/04 07:49:37;;;;;;;3.95;1.90;;;;;;;36.65;19.27;101127.56;5067339;28;20403;-62
2022/08/04 07:52:05;;;;;;;4.93;2.00;;;;;;;36.43;19.43;101132.28;5067402;28;20917;-63
2022/08/04 07:54:32;;;;;;;4.27;2.90;;;;;;;36.20;19.85;101142.81;5068630;28;20449;-61
2022/08/04 07:56:57;;;;;;;3.35;2.15;;;;;;;35.74;20.18;101142.50;5072082;28;20422;-64
2022/08/04 07:59:23;;;;;;;7.00;2.15;;;;;;;35.32;21.04;101139.53;5069829;28;20383;-63
2022/08/04 08:01:49;;;;;;;4.27;2.03;;;;;;;34.83;21.42;101148.00;5069490;28;20478;-61
2022/08/04 08:04:16;;;;;;;3.35;1.95;;;;;;;34.52;21.66;101139.88;5066655;28;20888;-62
2022/08/04 08:06:42;;;;;;;4.20;1.70;;;;;;;34.32;22.27;101137.72;5065573;28;20407;-62
2022/08/04 08:09:09;;;;;;;4.80;1.80;;;;;;;34.18;22.25;101135.13;5069334;28;20404;-62
2022/08/04 08:11:37;;;;;;;3.97;2.08;;;;;;;34.27;22.57;101145.00;5067017;28;20387;-61
2022/08/04 08:14:03;;;;;;;4.13;2.10;;;;;;;34.00;22.62;101145.25;5070081;28;20402;-63
2022/08/04 08:16:32;;;;;;;5.78;2.10;;;;;;;33.82;22.79;101147.13;5071166;28;20414;-62
2022/08/04 08:18:58;;;;;;;4.40;2.03;;;;;;;33.59;23.29;101147.13;5074988;28;20672;-63
2022/08/04 08:21:23;;;;;;;4.30;2.10;;;;;;;33.40;23.45;101152.03;5071473;28;20968;-62
2022/08/04 08:23:49;;;;;;;7.43;2.28;;;;;;;33.18;23.70;101145.41;5076822;28;20390;-62
2022/08/04 08:26:15;;;;;;;5.97;2.22;;;;;;;33.32;23.62;101154.41;5065887;28;20421;-60
2022/08/04 08:28:40;;;;;;;2.43;1.73;;;;;;;33.37;23.24;101150.72;5074549;28;20457;-64
2022/08/04 08:31:06;;;;;;;2.37;2.00;;;;;;;33.06;23.30;101145.13;5069304;28;20393;-64
2022/08/04 08:33:32;;;;;;;4.10;2.10;;;;;;;32.94;23.65;101143.78;5079471;28;20824;-61
2022/08/04 08:36:12;;;;;;;4.65;1.98;;;;;;;33.04;24.12;101147.38;5078456;28;20389;-61
2022/08/04 08:39:04;;;;;;;6.65;2.00;;;;;;;33.01;23.91;101145.25;5072400;28;20433;-61
2022/08/04 08:41:42;;;;;;;4.63;1.95;;;;;;;32.99;23.52;101142.84;5062256;28;20448;-63
2022/08/04 08:44:13;;;;;;;2.15;1.80;;;;;;;32.80;23.83;101151.25;5063633;28;20476;-61
2022/08/04 08:47:01;;;;;;;3.58;1.80;;;;;;;32.64;24.21;101158.22;5068838;28;20784;-61
2022/08/04 08:50:11;;;;;;;5.22;2.20;;;;;;;32.50;24.59;101153.53;5071410;28;20399;-61
2022/08/04 08:53:07;;;;;;;3.10;1.87;;;;;;;32.35;24.38;101153.84;5040721;28;20390;-61
2022/08/04 08:56:16;;;;;;;3.23;1.90;;;;;;;32.67;24.19;101141.94;5069342;28;20992;-61
2022/08/04 08:59:03;;;;;;;4.72;2.13;;;;;;;32.97;24.12;101142.31;5008130;28;20451;-63
2022/08/04 09:02:05;;;;;;;4.10;2.13;;;;;;;33.17;23.97;101143.81;5067213;28;20902;-61
2022/08/04 09:05:07;;;;;;;3.85;1.88;;;;;;;33.13;24.04;101134.56;5068634;28;20450;-61
2022/08/04 09:07:57;;;;;;;6.30;2.00;;;;;;;33.20;23.70;101140.44;5069950;28;20509;-61
2022/08/04 09:10:37;;;;;;;4.13;1.90;;;;;;;33.30;23.40;101131.94;5071857;28;20406;-61
2022/08/04 09:13:29;;;;;;;5.20;1.90;;;;;;;33.52;23.52;101124.78;5072935;28;20383;-61
2022/08/04 09:16:13;;;;;;;4.20;1.80;;;;;;;33.34;23.56;101127.41;5070986;28;20441;-61
2022/08/04 09:19:07;;;;;;;4.05;1.90;;;;;;;33.18;23.68;101128.13;5070185;28;20413;-62
2022/08/04 09:21:48;;;;;;;3.60;1.83;;;;;;;33.24;23.80;101129.63;5066693;28;20406;-61
2022/08/04 09:24:35;;;;;;;5.10;1.85;;;;;;;33.35;23.83;101120.00;5067289;28;20415;-61
2022/08/04 09:27:07;;;;;;;6.88;1.92;;;;;;;33.45;23.88;101118.91;5069181;28;20939;-61
2022/08/04 09:29:42;;;;;;;5.30;2.00;;;;;;;33.51;23.73;101120.41;5066268;28;20486;-62
2022/08/04 09:32:29;;;;;;;3.83;1.87;;;;;;;33.41;23.57;101121.50;5068633;28;20901;-61
2022/08/04 09:35:15;;;;;;;4.88;1.98;;;;;;;33.38;23.70;101113.06;5067012;28;20502;-61
2022/08/04 09:38:11;;;;;;;3.50;1.70;;;;;;;33.26;23.30;101117.22;5067506;28;20781;-62
2022/08/04 09:41:05;;;;;;;8.07;1.80;;;;;;;33.30;23.57;101111.91;5064125;28;20403;-65
2022/08/04 09:43:48;;;;;;;4.93;1.90;;;;;;;33.49;23.74;101106.16;5066960;28;20797;-61
2022/08/04 09:46:21;;;;;;;7.30;1.90;;;;;;;33.60;23.71;101115.78;5067738;28;20414;-61
2022/08/04 09:49:01;;;;;;;4.57;1.80;;;;;;;33.73;23.07;101111.31;5064284;28;20403;-61
2022/08/04 09:51:52;;;;;;;1.97;1.77;;;;;;;33.67;23.11;101115.31;5070406;28;20900;-61
2022/08/04 09:54:50;;;;;;;4.13;1.70;;;;;;;33.71;23.18;101113.59;5067656;28;20777;-61
2022/08/04 09:57:30;;;;;;;4.43;1.90;;;;;;;33.43;23.43;101105.50;5068439;28;20411;-61
2022/08/04 10:00:09;;;;;;;2.63;1.80;;;;;;;33.56;23.37;101102.97;5068388;28;20440;-61
2022/08/04 10:02:39;;;;;;;5.47;1.77;;;;;;;33.37;23.38;101112.25;5067972;28;20395;-62
2022/08/04 10:05:30;;;;;;;2.92;1.88;;;;;;;33.25;23.77;101095.53;5066900;28;20976;-60
2022/08/04 10:08:22;;;;;;;4.03;1.73;;;;;;;33.39;23.58;101100.97;5067363;28;20961;-64
2022/08/04 10:10:55;;;;;;;2.42;1.80;;;;;;;33.29;23.37;101094.56;5068203;28;20757;-60
2022/08/04 10:13:27;;;;;;;3.38;1.80;;;;;;;33.47;23.56;101106.47;5070346;28;20524;-67
2022/08/04 10:16:05;;;;;;;3.40;2.07;;;;;;;33.39;23.29;101100.97;5069258;28;20419;-61
2022/08/04 10:18:55;;;;;;;4.57;1.70;;;;;;;33.45;23.42;101092.25;5070707;28;20374;-61
2022/08/04 10:21:36;;;;;;;3.93;1.80;;;;;;;33.44;23.12;101087.06;5069905;28;20410;-64
2022/08/04 10:24:09;;;;;;;7.53;1.90;;;;;;;33.49;23.58;101087.75;5070079;28;20376;-65
2022/08/04 10:26:53;;;;;;;3.15;2.10;;;;;;;33.27;23.42;101088.59;5070383;28;21000;-62
2022/08/04 10:29:42;;;;;;;4.50;1.88;;;;;;;33.30;23.33;101098.16;5068952;28;20387;-61
2022/08/04 10:32:17;;;;;;;4.22;2.00;;;;;;;33.25;23.42;101088.09;5069596;28;20474;-62
2022/08/04 10:34:55;;;;;;;3.70;1.73;;;;;;;33.33;23.23;101078.28;5070273;28;20383;-62
2022/08/04 10:37:30;;;;;;;2.13;1.80;;;;;;;33.40;22.90;101080.56;5069776;28;20412;-62
2022/08/04 10:43:16;;;;;;;3.42;1.80;;;;;;;33.32;23.09;101073.91;5069517;28;20390;-63
2022/08/04 10:46:11;;;;;;;2.13;1.80;;;;;;;33.42;23.00;101072.81;5029998;28;20391;-62
2022/08/04 10:48:52;;;;;;;4.40;1.70;;;;;;;33.40;22.90;101073.13;5048313;28;20782;-62
2022/08/04 10:51:27;;;;;;;2.90;1.60;;;;;;;33.47;23.01;101070.75;5067674;28;20884;-62
2022/08/04 10:53:58;;;;;;;4.03;1.70;;;;;;;33.60;23.34;101068.22;5069722;28;20379;-63
2022/08/04 10:56:41;;;;;;;2.53;1.80;;;;;;;33.60;22.82;101062.72;5058381;28;20402;-63
2022/08/04 10:59:22;;;;;;;2.67;1.65;;;;;;;33.58;22.72;101056.72;5061874;28;20371;-62
2022/08/04 11:01:51;;;;;;;2.07;1.63;;;;;;;33.57;22.78;101060.63;5068202;28;20533;-63
2022/08/04 11:04:46;;;;;;;1.90;1.70;;;;;;;33.51;22.92;101060.75;5068672;28;20382;-61
2022/08/04 11:07:14;;;;;;;3.40;1.80;;;;;;;33.59;22.80;101058.38;5067697;28;20473;-61
2022/08/04 11:09:42;;;;;;;6.97;2.00;;;;;;;33.68;22.55;101053.72;5069315;28;20387;-62
2022/08/04 11:12:24;;;;;;;3.60;1.90;;;;;;;33.61;22.21;101051.41;5073318;28;20451;-63
2022/08/04 11:15:19;;;;;;;4.00;1.80;;;;;;;33.77;22.37;101045.50;5072799;28;20383;-62
2022/08/04 11:17:52;;;;;;;3.45;1.75;;;;;;;33.87;22.77;101050.69;5061840;28;21001;-62
2022/08/04 11:20:34;;;;;;;4.35;1.70;;;;;;;33.76;22.18;101043.88;5068888;28;20407;-62
2022/08/04 11:23:10;;;;;;;3.10;2.10;;;;;;;33.75;22.48;101045.03;5069147;28;20422;-62
2022/08/04 11:25:45;;;;;;;2.92;1.65;;;;;;;33.76;21.93;101041.13;5068221;28;20945;-61
2022/08/04 11:28:37;;;;;;;3.40;1.70;;;;;;;33.86;22.22;101049.88;5068340;28;20397;-64
2022/08/04 11:33:42;;;;;;;2.57;1.80;;;;;;;33.90;21.98;101037.13;5090219;27;20402;-62
2022/08/04 11:36:19;;;;;;;4.03;1.80;;;;;;;33.99;22.02;101033.59;5085380;28;20412;-62
2022/08/04 11:39:10;;;;;;;4.90;1.95;;;;;;;33.89;22.04;101035.50;5081850;28;20383;-63
2022/08/04 11:41:55;;;;;;;4.05;1.58;;;;;;;33.93;22.09;101026.63;5085988;28;20382;-63
2022/08/04 11:44:46;;;;;;;5.57;1.70;;;;;;;33.87;21.80;101026.78;5083876;28;20748;-62
2022/08/04 11:47:29;;;;;;;2.78;1.60;;;;;;;34.04;22.12;101036.19;5082862;28;20443;-62
2022/08/04 11:50:01;;;;;;;2.28;1.50;;;;;;;34.11;21.76;101024.72;5085407;28;20374;-63
2022/08/04 11:52:29;;;;;;;3.83;1.70;;;;;;;34.14;22.10;101022.13;5085508;28;20464;-62
2022/08/04 11:54:56;;;;;;;2.05;1.50;;;;;;;34.22;21.53;101010.31;5081900;28;20378;-63
2022/08/04 11:57:23;;;;;;;2.17;1.70;;;;;;;34.16;21.38;101006.09;5088240;28;20459;-67
2022/08/04 11:59:52;;;;;;;1.60;1.50;;;;;;;34.22;21.51;101004.03;5086492;28;20374;-63
2022/08/04 12:02:23;;;;;;;3.67;1.73;;;;;;;34.25;21.60;101014.38;5087559;28;20382;-63
2022/08/04 12:04:58;;;;;;;2.73;1.40;;;;;;;34.26;21.44;101005.00;5084145;28;20382;-63
2022/08/04 12:07:29;;;;;;;3.67;1.77;;;;;;;34.26;21.36;100996.72;5090689;28;20376;-63
2022/08/04 12:10:08;;;;;;;4.53;1.70;;;;;;;34.39;21.43;100986.69;5085046;28;20472;-67
2022/08/04 12:12:44;;;;;;;2.97;1.50;;;;;;;34.46;20.79;100990.56;5085846;28;20405;-62
2022/08/04 12:15:22;;;;;;;2.73;1.50;;;;;;;34.32;20.91;100986.38;5084864;28;20382;-63
2022/08/04 12:18:03;;;;;;;3.17;1.57;;;;;;;34.31;20.81;100987.50;5084114;28;20379;-63
2022/08/04 12:20:33;;;;;;;3.47;1.80;;;;;;;34.30;20.73;100989.44;5084526;28;20401;-63
2022/08/04 12:23:00;;;;;;;2.70;1.60;;;;;;;34.36;20.36;100979.91;5085842;28;20939;-63
2022/08/04 12:25:30;;;;;;;2.70;1.50;;;;;;;34.37;20.46;100977.94;5084746;28;20503;-63
2022/08/04 12:28:14;;;;;;;3.20;1.67;;;;;;;34.50;20.07;100976.16;5084675;28;20405;-66
2022/08/04 12:30:47;;;;;;;2.80;1.70;;;;;;;34.55;19.81;100974.03;5084209;28;20394;-65
2022/08/04 12:33:45;;;;;;;4.47;2.10;;;;;;;34.70;19.74;100977.44;5083980;28;20464;-63
2022/08/04 12:36:28;;;;;;;4.18;1.75;;;;;;;34.78;20.16;100977.41;5061315;28;20413;-65